createdAt,value
2023-01-22T00:02:42.899Z,2.02
2023-01-22T00:18:04.146Z,6.16
2023-01-22T00:33:26.384Z,7.54
2023-01-22T00:48:32.619Z,7.82
2023-01-22T01:03:37.997Z,8.01
2023-01-22T01:18:42.074Z,7.86
2023-01-22T01:33:46.814Z,8.11
2023-01-22T01:48:53.586Z,8.04
2023-01-22T02:03:58.065Z,7.97
2023-01-22T02:19:02.055Z,7.76
2023-01-22T02:34:07.188Z,7.59
2023-01-22T02:49:11.697Z,7.59
2023-01-22T03:04:34.239Z,7.78
2023-01-22T03:19:57.768Z,7.91
2023-01-22T03:35:03.520Z,7.99
2023-01-22T03:50:18.259Z,8.03
2023-01-22T04:05:40.849Z,5.68
2023-01-22T04:20:45.957Z,3.33
2023-01-22T04:36:10.578Z,6.64
2023-01-22T04:51:14.854Z,7.73
2023-01-22T05:06:37.032Z,8.01
2023-01-22T05:21:41.519Z,7.97
2023-01-22T05:36:45.552Z,7.82
2023-01-22T05:51:52.799Z,7.75
2023-01-22T06:06:57.057Z,8.03
2023-01-22T06:22:01.699Z,5.48
2023-01-22T06:37:12.341Z,2.10
2023-01-22T06:52:16.405Z,4.34
2023-01-22T07:07:21.539Z,7.41
2023-01-22T07:22:42.732Z,7.96
2023-01-22T07:37:53.543Z,8.40
2023-01-22T07:52:57.605Z,8.32
2023-01-22T08:08:01.938Z,4.26
2023-01-22T08:23:07.637Z,2.12
2023-01-22T08:38:14.300Z,4.77
2023-01-22T08:53:18.024Z,7.81
2023-01-22T09:08:22.866Z,8.86
2023-01-22T09:23:26.847Z,6.90
2023-01-22T09:38:31.720Z,3.81
2023-01-22T09:53:35.488Z,2.60
2023-01-22T10:08:46.319Z,5.34
2023-01-22T10:23:50.555Z,8.33
2023-01-22T10:39:07.055Z,9.09
2023-01-22T10:54:23.587Z,9.19
2023-01-22T11:09:31.961Z,5.47
2023-01-22T11:24:39.542Z,3.05
2023-01-22T11:39:49.831Z,5.67
2023-01-22T11:54:53.771Z,8.79
2023-01-22T12:10:10.700Z,9.76
2023-01-22T12:25:17.820Z,7.40
2023-01-22T12:40:25.515Z,4.02
2023-01-22T12:55:44.222Z,5.00
2023-01-22T13:10:54.543Z,8.31
2023-01-22T13:25:58.549Z,8.61
2023-01-22T13:41:13.587Z,8.37
2023-01-22T13:56:17.720Z,8.39
2023-01-22T14:11:22.212Z,8.71
2023-01-22T14:26:26.128Z,6.52
2023-01-22T14:41:30.709Z,3.10
2023-01-22T14:56:35.022Z,2.04
2023-01-22T15:11:39.996Z,4.92
2023-01-22T15:26:45.375Z,7.48
2023-01-22T15:41:53.778Z,7.80
2023-01-22T15:56:59.807Z,8.07
2023-01-22T16:12:07.001Z,8.18
2023-01-22T16:27:10.794Z,8.08
2023-01-22T16:42:15.222Z,7.91
2023-01-22T16:57:20.901Z,7.91
2023-01-22T17:12:29.884Z,8.04
2023-01-22T17:27:41.176Z,8.07
2023-01-22T17:42:50.365Z,8.32
2023-01-22T17:57:57.597Z,6.22
2023-01-22T18:13:03.949Z,3.05
2023-01-22T18:28:07.988Z,2.02
2023-01-22T18:43:12.942Z,1.55
2023-01-22T18:58:37.007Z,4.66
2023-01-22T19:13:41.439Z,7.93
2023-01-22T19:28:46.044Z,8.83
2023-01-22T19:43:56.299Z,9.40
2023-01-22T19:59:09.753Z,6.43
2023-01-22T20:14:15.737Z,2.72
2023-01-22T20:29:20.317Z,2.02
2023-01-22T20:44:25.697Z,6.60
2023-01-22T20:59:30.747Z,8.19
2023-01-22T21:14:36.147Z,8.89
2023-01-22T21:29:40.569Z,9.11
2023-01-22T21:45:05.234Z,9.06
2023-01-22T22:00:09.597Z,5.02
2023-01-22T22:15:15.239Z,2.54
2023-01-22T22:30:20.039Z,1.69
2023-01-22T22:45:26.902Z,1.34
2023-01-22T23:00:31.116Z,4.98
2023-01-22T23:15:37.289Z,7.71
2023-01-22T23:30:41.385Z,9.13
2023-01-22T23:45:46.942Z,9.57
